Time;durP1;ratioP1;P1;durP2;ratioP2;P2;SDS_P1;SDS_P2;PMS_P1;PMS_P2;Temp;Humidity;BMP_temperature;BMP_pressure;BME280_temperature;BME280_humidity;BME280_pressure;Samples;Min_cycle;Max_cycle;Signal;HPM_P1;HPM_P2
2021/12/19 00:02:29;;;;;;;28.02;19.20;;;6.30;66.80;;;;;;5033066;28;20056;-53
2021/12/19 00:10:24;;;;;;;28.90;19.08;;;6.30;66.50;;;;;;5032000;28;20064;-53
2021/12/19 00:12:51;;;;;;;30.85;21.45;;;6.40;66.50;;;;;;5032674;28;20029;-57
2021/12/19 00:15:17;;;;;;;30.25;19.88;;;6.50;66.30;;;;;;5032028;28;20048;-54
2021/12/19 00:17:43;;;;;;;29.23;19.00;;;6.50;65.90;;;;;;5033228;28;20025;-57
2021/12/19 00:20:09;;;;;;;29.27;19.27;;;6.60;65.70;;;;;;5032514;28;20021;-56
2021/12/19 00:22:35;;;;;;;30.73;18.65;;;6.70;65.30;;;;;;5033027;28;20022;-59
2021/12/19 00:25:01;;;;;;;27.67;19.00;;;6.80;65.20;;;;;;5032277;28;20098;-56
2021/12/19 00:27:27;;;;;;;27.77;19.13;;;6.80;65.10;;;;;;5032574;28;20030;-57
2021/12/19 00:29:53;;;;;;;28.92;20.13;;;6.70;65.20;;;;;;5032685;28;20025;-56
2021/12/19 00:32:19;;;;;;;31.00;20.08;;;6.60;65.60;;;;;;5032548;28;20025;-59
2021/12/19 00:34:45;;;;;;;29.42;20.48;;;6.50;66.10;;;;;;5015458;28;20022;-58
2021/12/19 00:37:11;;;;;;;30.77;20.73;;;6.40;66.40;;;;;;5014538;28;20022;-53
2021/12/19 00:39:37;;;;;;;29.17;19.55;;;6.20;66.80;;;;;;5015650;28;20040;-60
2021/12/19 00:42:07;;;;;;;31.20;21.60;;;6.10;67.40;;;;;;5031979;28;20041;-54
2021/12/19 00:44:35;;;;;;;31.50;21.25;;;6.00;67.70;;;;;;5015298;28;20369;-59
2021/12/19 00:47:07;;;;;;;32.30;20.67;;;6.00;68.20;;;;;;5032390;28;20029;-58
2021/12/19 00:49:35;;;;;;;31.95;22.10;;;6.10;68.00;;;;;;5032654;28;20029;-59
2021/12/19 00:52:01;;;;;;;29.23;20.88;;;6.00;67.90;;;;;;5031995;28;20116;-57
2021/12/19 00:54:28;;;;;;;31.35;20.85;;;6.00;68.20;;;;;;5032903;28;20442;-59
2021/12/19 00:56:53;;;;;;;29.65;19.92;;;5.90;68.50;;;;;;5015079;28;20022;-56
2021/12/19 00:59:20;;;;;;;35.67;22.77;;;5.80;68.80;;;;;;5032053;28;20063;-55
2021/12/19 01:01:47;;;;;;;29.55;20.88;;;5.70;69.00;;;;;;5032322;28;20025;-56
2021/12/19 01:04:15;;;;;;;32.10;21.58;;;5.70;69.00;;;;;;5014530;28;20481;-60
2021/12/19 01:06:42;;;;;;;31.40;21.52;;;5.60;70.20;;;;;;5032639;28;20026;-57
2021/12/19 01:09:09;;;;;;;30.08;21.10;;;5.50;69.90;;;;;;5031636;28;20147;-59
2021/12/19 01:11:36;;;;;;;30.05;20.73;;;5.50;70.00;;;;;;5031882;28;20036;-59
2021/12/19 01:14:03;;;;;;;31.23;21.60;;;5.50;70.40;;;;;;5031972;28;20046;-60
2021/12/19 01:16:29;;;;;;;33.78;23.00;;;5.40;70.20;;;;;;5032679;28;20022;-60
2021/12/19 01:18:55;;;;;;;31.25;22.75;;;5.50;70.10;;;;;;5032701;28;20021;-56
2021/12/19 01:21:20;;;;;;;33.30;22.98;;;5.50;69.80;;;;;;5012823;28;20409;-57
2021/12/19 01:23:47;;;;;;;32.63;22.85;;;5.60;69.60;;;;;;5014701;28;20080;-60
2021/12/19 01:26:13;;;;;;;34.17;22.42;;;5.50;69.90;;;;;;5031791;28;20028;-58
2021/12/19 01:28:40;;;;;;;33.80;23.55;;;5.40;70.20;;;;;;5032009;28;20033;-57
2021/12/19 01:31:06;;;;;;;35.60;23.58;;;5.50;70.30;;;;;;5030970;28;20513;-56
2021/12/19 01:33:31;;;;;;;35.28;24.02;;;5.60;70.10;;;;;;5032101;28;20022;-60
2021/12/19 01:35:58;;;;;;;33.97;23.95;;;5.60;69.70;;;;;;5014822;28;20025;-59
2021/12/19 01:38:24;;;;;;;38.00;24.45;;;5.60;69.90;;;;;;5032368;28;20021;-60
2021/12/19 01:40:49;;;;;;;34.15;23.55;;;5.60;69.90;;;;;;5018711;28;20026;-58
2021/12/19 01:43:20;;;;;;;33.72;24.10;;;5.70;69.90;;;;;;5035262;28;20465;-61
2021/12/19 01:45:46;;;;;;;36.20;24.63;;;5.80;69.50;;;;;;5036533;28;20075;-59
2021/12/19 01:48:13;;;;;;;35.85;23.45;;;5.90;69.30;;;;;;5035651;28;20037;-56
2021/12/19 01:50:40;;;;;;;39.42;25.73;;;5.80;69.40;;;;;;5017872;28;20366;-54
2021/12/19 01:53:08;;;;;;;36.97;24.58;;;5.70;70.10;;;;;;5017555;28;20400;-60
2021/12/19 01:55:34;;;;;;;38.25;25.20;;;5.70;70.20;;;;;;5018228;28;20442;-61
2021/12/19 01:58:01;;;;;;;38.63;25.45;;;5.70;70.30;;;;;;5017652;28;20567;-58
2021/12/19 02:00:34;;;;;;;39.50;26.00;;;5.70;70.40;;;;;;5036122;28;20109;-58
2021/12/19 02:03:01;;;;;;;40.25;26.27;;;5.70;70.30;;;;;;5035813;28;20131;-58
2021/12/19 02:05:28;;;;;;;40.60;26.75;;;5.80;70.20;;;;;;5035283;28;20038;-59
2021/12/19 02:07:59;;;;;;;37.08;24.33;;;5.80;70.00;;;;;;5034680;28;20033;-59
2021/12/19 02:10:27;;;;;;;40.08;26.00;;;5.80;70.30;;;;;;5033907;28;20112;-58
2021/12/19 02:12:55;;;;;;;37.28;24.63;;;5.80;70.10;;;;;;5035355;28;20039;-62
2021/12/19 02:15:25;;;;;;;36.05;24.08;;;5.90;70.20;;;;;;5017181;28;20589;-60
2021/12/19 02:17:54;;;;;;;39.83;26.10;;;5.90;70.30;;;;;;5035619;28;20049;-60
2021/12/19 02:20:21;;;;;;;35.60;24.15;;;5.90;70.30;;;;;;5035164;28;20079;-61
2021/12/19 02:22:47;;;;;;;35.72;25.35;;;5.90;70.10;;;;;;5017645;28;20422;-58
2021/12/19 02:25:16;;;;;;;37.65;25.42;;;6.00;70.20;;;;;;5017065;28;20025;-58
2021/12/19 02:27:42;;;;;;;35.22;24.10;;;6.00;70.00;;;;;;5035476;28;20087;-59
2021/12/19 02:30:10;;;;;;;35.55;24.08;;;6.10;69.90;;;;;;5034662;28;20028;-60
2021/12/19 02:32:39;;;;;;;36.83;24.48;;;6.00;70.00;;;;;;5017388;28;20120;-56
2021/12/19 02:35:08;;;;;;;35.03;22.70;;;6.10;69.90;;;;;;5034940;28;20021;-59
2021/12/19 02:48:43;;;;;;;37.97;25.48;;;6.10;70.00;;;;;;5034803;28;20497;-59
2021/12/19 02:51:08;;;;;;;39.53;25.85;;;6.10;70.00;;;;;;5033177;28;20053;-59
2021/12/19 02:53:56;;;;;;;38.03;25.65;;;6.10;70.10;;;;;;5017206;28;20359;-58
2021/12/19 02:56:21;;;;;;;35.58;23.70;;;6.00;70.30;;;;;;5034453;28;20370;-62
2021/12/19 02:58:47;;;;;;;42.85;24.38;;;6.00;70.90;;;;;;5017295;28;20059;-60
2021/12/19 03:01:17;;;;;;;40.08;25.90;;;5.90;71.20;;;;;;5016301;28;20422;-60
2021/12/19 03:03:43;;;;;;;38.83;24.35;;;5.90;71.40;;;;;;5017349;28;20446;-59
2021/12/19 03:06:08;;;;;;;36.17;25.10;;;5.90;71.50;;;;;;5034104;28;20057;-60
2021/12/19 03:08:36;;;;;;;36.38;24.40;;;5.90;71.30;;;;;;5034702;28;20390;-62
2021/12/19 03:18:59;;;;;;;41.22;25.38;;;5.80;72.00;;;;;;5034739;28;20044;-57
2021/12/19 03:21:25;;;;;;;40.05;25.33;;;5.90;71.70;;;;;;5033495;28;20085;-60
2021/12/19 03:23:52;;;;;;;36.42;23.67;;;5.90;71.50;;;;;;5034798;28;20026;-61
2021/12/19 03:26:18;;;;;;;39.28;25.40;;;5.90;71.70;;;;;;5033698;28;20053;-61
2021/12/19 03:28:44;;;;;;;37.63;23.92;;;5.90;71.60;;;;;;5016414;28;20053;-60
2021/12/19 03:31:10;;;;;;;42.05;24.58;;;6.00;71.50;;;;;;5015547;28;20465;-58
2021/12/19 03:33:37;;;;;;;38.72;24.38;;;5.90;72.00;;;;;;5016510;28;20029;-58
2021/12/19 03:36:05;;;;;;;36.05;23.45;;;5.90;71.70;;;;;;5034038;28;20022;-55
2021/12/19 03:38:33;;;;;;;36.10;22.60;;;5.80;71.70;;;;;;5016067;28;20056;-55
2021/12/19 03:43:54;;;;;;;35.65;22.45;;;6.00;71.50;;;;;;5010312;28;20041;-61
2021/12/19 03:46:20;;;;;;;36.70;22.35;;;6.00;71.30;;;;;;5033377;28;20493;-60
2021/12/19 03:48:45;;;;;;;33.25;21.95;;;6.00;71.50;;;;;;5034135;28;20124;-60
2021/12/19 03:51:11;;;;;;;34.17;22.45;;;6.00;71.50;;;;;;5015255;28;20378;-59
2021/12/19 03:53:37;;;;;;;34.70;22.23;;;6.00;71.40;;;;;;5033977;28;20415;-62
2021/12/19 03:56:03;;;;;;;33.67;21.15;;;5.90;71.60;;;;;;5034275;28;20029;-61
2021/12/19 03:58:30;;;;;;;34.17;21.80;;;5.90;72.20;;;;;;5015325;28;20368;-55
2021/12/19 04:00:59;;;;;;;35.50;22.27;;;5.80;71.90;;;;;;5033355;28;20071;-61
2021/12/19 04:03:26;;;;;;;34.83;22.05;;;5.80;72.00;;;;;;5031918;28;20039;-56
2021/12/19 04:05:52;;;;;;;35.03;21.42;;;5.80;72.10;;;;;;5016037;28;20394;-59
2021/12/19 04:08:20;;;;;;;33.70;21.67;;;5.80;72.30;;;;;;5015430;28;20462;-61
2021/12/19 04:10:48;;;;;;;33.90;21.50;;;5.80;72.40;;;;;;5033306;28;20044;-60
2021/12/19 04:13:15;;;;;;;33.45;21.45;;;5.80;72.50;;;;;;5032792;28;20038;-57
2021/12/19 04:15:41;;;;;;;34.13;20.35;;;5.70;72.70;;;;;;5033634;28;20042;-56
2021/12/19 04:18:07;;;;;;;32.50;20.40;;;5.70;73.00;;;;;;5033186;28;20029;-56
2021/12/19 04:20:32;;;;;;;35.03;21.23;;;5.70;73.20;;;;;;5032578;28;20060;-59
2021/12/19 04:23:06;;;;;;;35.33;22.65;;;5.70;73.30;;;;;;5130184;27;20365;-57
2021/12/19 04:25:32;;;;;;;33.10;20.23;;;5.70;72.90;;;;;;5110038;28;20111;-64
2021/12/19 04:27:58;;;;;;;32.40;20.52;;;5.70;72.90;;;;;;5109997;28;20077;-58
2021/12/19 04:30:26;;;;;;;35.88;20.52;;;5.70;73.00;;;;;;5073783;28;20077;-59
2021/12/19 04:33:05;;;;;;;35.95;22.33;;;5.70;73.00;;;;;;5109817;28;20526;-57
2021/12/19 04:35:34;;;;;;;33.03;20.65;;;5.70;72.90;;;;;;5109599;28;20667;-59
2021/12/19 05:04:23;;;;;;;28.52;18.05;;;5.70;72.90;;;;;;5109500;28;19994;-60
2021/12/19 05:14:03;;;;;;;30.77;19.05;;;5.70;73.40;;;;;;5091002;28;20024;-55
2021/12/19 05:15:02;;;;;;;;;;;5.80;72.70;;;;;;5092549;28;20034;-54
2021/12/19 05:17:30;;;;;;;27.75;17.63;;;5.80;72.60;;;;;;5108705;28;20256;-60
2021/12/19 05:20:16;;;;;;;28.75;18.20;;;5.80;72.60;;;;;;5109174;28;20023;-59
2021/12/19 05:22:48;;;;;;;28.17;17.35;;;5.80;72.50;;;;;;5104205;28;20054;-56
2021/12/19 05:25:17;;;;;;;26.92;17.67;;;5.80;73.30;;;;;;5108032;28;20019;-61
2021/12/19 05:27:52;;;;;;;28.83;17.55;;;5.80;72.60;;;;;;5109048;28;20090;-61
2021/12/19 05:30:19;;;;;;;27.85;17.40;;;5.80;72.80;;;;;;5108142;28;20020;-59
2021/12/19 05:32:46;;;;;;;26.98;17.88;;;5.80;72.60;;;;;;5098021;28;20058;-60
2021/12/19 05:35:20;;;;;;;27.17;18.05;;;5.80;72.60;;;;;;5094114;28;20035;-56
2021/12/19 05:45:58;;;;;;;28.40;17.80;;;6.00;72.10;;;;;;5095312;28;20496;-58
2021/12/19 05:48:23;;;;;;;27.88;17.38;;;6.00;71.90;;;;;;5093036;28;20020;-57
2021/12/19 05:50:49;;;;;;;28.88;18.10;;;6.00;71.80;;;;;;5094301;28;20497;-56
2021/12/19 05:53:15;;;;;;;29.33;17.58;;;6.00;71.80;;;;;;5094605;28;20435;-54
2021/12/19 05:55:41;;;;;;;27.52;17.85;;;5.90;72.30;;;;;;5094306;28;20035;-60
2021/12/19 05:58:08;;;;;;;29.33;18.23;;;5.80;72.60;;;;;;5093610;28;20024;-54
2021/12/19 06:00:34;;;;;;;30.20;16.90;;;5.80;72.70;;;;;;5094552;28;20024;-58
2021/12/19 06:03:01;;;;;;;28.52;16.90;;;5.80;72.80;;;;;;5094219;28;20035;-57
2021/12/19 06:05:27;;;;;;;26.45;16.92;;;5.80;73.00;;;;;;5094140;28;20035;-58
2021/12/19 06:07:52;;;;;;;28.77;18.52;;;5.70;73.40;;;;;;5094526;28;20099;-56
2021/12/19 06:10:20;;;;;;;25.17;16.75;;;5.70;73.20;;;;;;5075645;28;20112;-55
2021/12/19 06:12:46;;;;;;;27.42;17.05;;;5.70;73.00;;;;;;5073144;28;20544;-56
2021/12/19 06:15:12;;;;;;;26.00;16.75;;;5.70;72.90;;;;;;5074360;28;20103;-63
2021/12/19 06:17:45;;;;;;;27.45;17.60;;;5.70;72.90;;;;;;5072399;28;20028;-59
2021/12/19 06:20:10;;;;;;;28.00;17.03;;;5.70;72.80;;;;;;5072918;28;20035;-55
2021/12/19 06:22:37;;;;;;;27.27;17.33;;;5.70;73.00;;;;;;5071521;28;20405;-57
2021/12/19 06:25:04;;;;;;;30.35;17.92;;;5.60;73.00;;;;;;5074031;28;20021;-57
2021/12/19 06:27:30;;;;;;;32.60;18.10;;;5.60;73.00;;;;;;5073227;28;20024;-59
2021/12/19 06:29:56;;;;;;;29.48;17.40;;;5.50;73.30;;;;;;5073699;28;20029;-53
2021/12/19 06:32:22;;;;;;;27.50;17.17;;;5.50;73.50;;;;;;5072383;28;20028;-55
2021/12/19 06:34:47;;;;;;;29.08;17.63;;;5.40;73.50;;;;;;5093709;28;20051;-56
2021/12/19 06:39:57;;;;;;;28.67;18.58;;;5.40;73.50;;;;;;5093212;28;20097;-60
2021/12/19 06:42:23;;;;;;;31.58;17.85;;;5.40;73.50;;;;;;5071696;28;20036;-59
2021/12/19 06:44:49;;;;;;;27.70;17.48;;;5.40;73.90;;;;;;5072069;28;20550;-57
2021/12/19 06:47:14;;;;;;;31.92;18.27;;;5.40;73.30;;;;;;5072878;28;20029;-59
2021/12/19 06:49:40;;;;;;;26.45;16.35;;;5.50;73.30;;;;;;5086158;28;20566;-59
2021/12/19 06:52:05;;;;;;;30.45;17.90;;;5.40;73.10;;;;;;5091969;28;20389;-58
2021/12/19 06:54:31;;;;;;;26.92;16.52;;;5.40;73.00;;;;;;5091354;28;20030;-61
2021/12/19 06:56:57;;;;;;;25.98;15.70;;;5.40;73.00;;;;;;5092237;28;20047;-57
2021/12/19 06:59:23;;;;;;;25.73;14.90;;;5.40;72.80;;;;;;5091488;28;20032;-59
2021/12/19 07:01:49;;;;;;;22.48;14.25;;;5.40;72.80;;;;;;5092484;28;20048;-60
2021/12/19 07:04:14;;;;;;;22.08;14.35;;;5.40;73.30;;;;;;5082352;28;20033;-58
2021/12/19 07:06:40;;;;;;;24.98;15.15;;;5.30;73.60;;;;;;5075632;28;20135;-62
2021/12/19 07:09:06;;;;;;;24.73;15.20;;;5.30;73.40;;;;;;5081312;28;20036;-60
2021/12/19 07:11:32;;;;;;;19.60;12.27;;;5.30;73.20;;;;;;5071105;28;20039;-63
2021/12/19 07:13:57;;;;;;;21.40;13.27;;;5.40;73.00;;;;;;5092774;28;20437;-59
2021/12/19 07:16:24;;;;;;;21.60;13.57;;;5.40;73.10;;;;;;5091715;28;20067;-57
2021/12/19 07:18:49;;;;;;;19.38;12.98;;;5.40;72.70;;;;;;5092032;28;20024;-60
2021/12/19 07:21:15;;;;;;;20.33;13.07;;;5.50;72.50;;;;;;5083152;28;20068;-61
2021/12/19 07:23:41;;;;;;;24.17;12.60;;;5.60;71.80;;;;;;5053301;28;20025;-60
2021/12/19 07:26:07;;;;;;;19.88;12.07;;;5.70;71.50;;;;;;5067964;28;20079;-59
2021/12/19 07:28:32;;;;;;;22.48;12.90;;;5.70;71.00;;;;;;5051252;28;20029;-60
2021/12/19 07:30:58;;;;;;;19.77;12.60;;;5.80;71.00;;;;;;5051317;28;20021;-54
2021/12/19 07:33:24;;;;;;;27.08;24.33;;;5.80;70.80;;;;;;5050480;28;20078;-59
2021/12/19 07:35:50;;;;;;;29.38;26.40;;;6.30;70.90;;;;;;5051809;28;20044;-60
2021/12/19 07:38:28;;;;;;;25.73;23.13;;;6.90;67.00;;;;;;5051680;28;20462;-58
2021/12/19 07:40:56;;;;;;;17.38;11.13;;;7.10;66.50;;;;;;5051617;28;20531;-61
2021/12/19 07:43:22;;;;;;;15.88;10.95;;;7.30;66.00;;;;;;5033232;28;20051;-60
2021/12/19 07:45:48;;;;;;;15.70;11.10;;;7.10;66.00;;;;;;5051051;28;20315;-61
2021/12/19 07:48:13;;;;;;;17.88;11.45;;;7.10;65.80;;;;;;5032859;28;20033;-62
2021/12/19 07:50:39;;;;;;;13.82;9.80;;;7.10;66.10;;;;;;5051028;28;20643;-56
2021/12/19 07:53:05;;;;;;;15.93;10.35;;;7.10;65.10;;;;;;5050285;28;20052;-59
2021/12/19 07:55:32;;;;;;;17.10;11.00;;;7.00;65.30;;;;;;5050961;28;20028;-60
2021/12/19 07:57:57;;;;;;;16.15;10.35;;;6.90;65.60;;;;;;5051186;28;20044;-61
2021/12/19 08:00:23;;;;;;;15.35;9.27;;;6.90;65.50;;;;;;5068178;28;20390;-61
2021/12/19 08:02:49;;;;;;;15.23;9.95;;;6.70;65.70;;;;;;5051369;28;20106;-61
2021/12/19 08:05:16;;;;;;;12.82;9.05;;;6.70;66.20;;;;;;5071037;28;20016;-57
2021/12/19 08:07:46;;;;;;;13.52;9.10;;;6.80;66.10;;;;;;5060041;28;20041;-60
2021/12/19 08:11:39;;;;;;;15.55;9.07;;;6.80;66.00;;;;;;5033245;28;20031;-61
2021/12/19 08:13:05;;;;;;;13.63;8.23;;;6.70;65.70;;;;;;5049765;28;20383;-59
2021/12/19 08:15:31;;;;;;;15.18;8.90;;;6.60;66.20;;;;;;5050930;28;20029;-60
2021/12/19 08:17:57;;;;;;;14.00;9.10;;;6.40;67.00;;;;;;5032824;28;20547;-58
2021/12/19 08:20:24;;;;;;;27.27;8.27;;;6.30;67.30;;;;;;5033086;28;20024;-59
2021/12/19 08:22:51;;;;;;;14.52;8.88;;;6.30;67.70;;;;;;5050009;28;20076;-56
2021/12/19 08:25:17;;;;;;;15.93;9.52;;;6.20;68.20;;;;;;5051115;28;20028;-60
2021/12/19 08:27:43;;;;;;;13.88;8.73;;;6.20;68.50;;;;;;5064208;28;20064;-61
2021/12/19 08:30:11;;;;;;;13.73;9.07;;;6.20;68.10;;;;;;5032233;28;20076;-61
2021/12/19 08:32:41;;;;;;;11.93;8.43;;;6.20;68.00;;;;;;5049022;28;20076;-61
2021/12/19 08:35:08;;;;;;;14.60;8.80;;;6.30;68.00;;;;;;5050767;28;20124;-60
2021/12/19 08:37:34;;;;;;;15.77;9.07;;;6.40;67.50;;;;;;5050772;28;20025;-63
2021/12/19 08:40:00;;;;;;;41.88;17.17;;;6.40;67.30;;;;;;5051172;28;20088;-62
2021/12/19 08:42:45;;;;;;;20.70;11.20;;;6.50;67.00;;;;;;5049966;28;20033;-62
2021/12/19 08:45:11;;;;;;;15.30;9.77;;;6.50;66.80;;;;;;5035920;28;20057;-64
2021/12/19 08:47:37;;;;;;;16.35;9.93;;;6.60;66.70;;;;;;5049174;28;20359;-62
2021/12/19 08:50:06;;;;;;;14.65;9.85;;;6.70;66.70;;;;;;5067083;28;20061;-61
2021/12/19 08:52:31;;;;;;;17.45;9.82;;;6.70;65.90;;;;;;5049400;28;20071;-63
2021/12/19 08:54:58;;;;;;;15.77;9.63;;;6.70;66.10;;;;;;5050605;28;20070;-63
2021/12/19 08:57:24;;;;;;;13.18;9.02;;;6.70;65.90;;;;;;5063283;28;20029;-62
2021/12/19 08:59:50;;;;;;;14.27;9.40;;;6.70;66.10;;;;;;5070640;28;20036;-62
2021/12/19 09:02:16;;;;;;;14.23;9.15;;;6.70;65.80;;;;;;5047934;28;20037;-63
2021/12/19 09:04:43;;;;;;;13.05;8.82;;;6.80;65.90;;;;;;5050830;28;20037;-64
2021/12/19 09:07:08;;;;;;;14.65;8.65;;;6.80;65.50;;;;;;5052646;28;20063;-66
2021/12/19 09:09:48;;;;;;;15.02;9.00;;;6.80;65.40;;;;;;5045615;28;20065;-64
2021/12/19 09:12:15;;;;;;;11.05;7.93;;;6.90;65.20;;;;;;5052982;28;20112;-71
2021/12/19 09:14:41;;;;;;;15.13;8.50;;;6.90;65.50;;;;;;5054525;28;20028;-59
2021/12/19 09:17:07;;;;;;;12.65;8.10;;;6.90;65.40;;;;;;5068590;28;20029;-60
2021/12/19 09:19:33;;;;;;;12.95;7.78;;;7.00;65.20;;;;;;5035322;28;20410;-63
2021/12/19 09:21:59;;;;;;;12.60;8.50;;;7.10;64.50;;;;;;5054048;28;20136;-60
2021/12/19 09:24:28;;;;;;;11.50;7.70;;;7.20;64.40;;;;;;5035289;28;20029;-64
2021/12/19 09:26:54;;;;;;;10.68;6.40;;;7.30;64.20;;;;;;5040682;28;20048;-64
2021/12/19 09:29:21;;;;;;;9.65;6.47;;;7.30;64.30;;;;;;5035116;28;20025;-58
2021/12/19 09:31:47;;;;;;;10.60;6.65;;;7.20;64.10;;;;;;5055451;28;20047;-60
2021/12/19 09:34:13;;;;;;;9.98;6.85;;;7.30;64.00;;;;;;5065158;28;20382;-61
2021/12/19 09:36:38;;;;;;;9.80;6.82;;;7.30;63.80;;;;;;5060825;28;20448;-61
2021/12/19 09:39:05;;;;;;;11.10;6.70;;;7.30;63.40;;;;;;5052955;28;20036;-60
2021/12/19 09:41:36;;;;;;;9.15;6.30;;;7.30;64.20;;;;;;5053521;28;20140;-61
2021/12/19 09:44:05;;;;;;;11.20;7.00;;;7.20;64.00;;;;;;5060212;28;20055;-63
2021/12/19 09:46:35;;;;;;;10.73;6.30;;;7.20;64.10;;;;;;5053376;28;20045;-60
2021/12/19 09:49:00;;;;;;;10.35;6.50;;;7.30;63.80;;;;;;5067080;28;20029;-62
2021/12/19 09:51:27;;;;;;;10.43;6.15;;;7.40;63.50;;;;;;5033914;28;20043;-62
2021/12/19 09:53:53;;;;;;;10.98;6.82;;;7.40;63.10;;;;;;5035753;28;20025;-61
2021/12/19 09:56:18;;;;;;;12.20;7.68;;;7.40;62.50;;;;;;5057548;28;20158;-64
2021/12/19 09:58:48;;;;;;;10.27;6.40;;;7.40;62.50;;;;;;5073377;28;20040;-64
2021/12/19 10:01:14;;;;;;;10.93;6.65;;;7.50;62.10;;;;;;5047477;28;20037;-62
2021/12/19 10:03:39;;;;;;;9.93;6.72;;;7.50;61.90;;;;;;5035034;28;20422;-66
2021/12/19 10:06:15;;;;;;;9.70;6.75;;;7.50;61.70;;;;;;5035134;28;20031;-59
2021/12/19 10:08:41;;;;;;;10.27;6.90;;;7.60;61.50;;;;;;5051965;28;20526;-65
2021/12/19 10:11:32;;;;;;;13.02;7.72;;;7.60;61.30;;;;;;5036181;28;20348;-60
2021/12/19 10:13:58;;;;;;;10.23;6.63;;;7.60;61.30;;;;;;5054433;28;20033;-63
2021/12/19 10:16:25;;;;;;;15.00;7.13;;;7.60;61.60;;;;;;5035522;28;20109;-61
2021/12/19 10:18:53;;;;;;;8.88;6.22;;;7.60;61.30;;;;;;5036172;28;20051;-64
2021/12/19 10:21:20;;;;;;;10.70;6.38;;;7.70;61.40;;;;;;5042828;28;20048;-63
2021/12/19 10:23:46;;;;;;;9.30;6.20;;;7.80;60.90;;;;;;5072232;28;20028;-64
2021/12/19 10:26:12;;;;;;;9.60;6.10;;;7.90;60.20;;;;;;5072632;28;20538;-63
2021/12/19 10:28:54;;;;;;;10.90;5.80;;;8.00;60.20;;;;;;5072136;28;20036;-60
2021/12/19 10:31:21;;;;;;;8.30;5.22;;;8.10;59.90;;;;;;5072695;28;20024;-59
2021/12/19 10:33:48;;;;;;;15.68;4.43;;;8.40;58.80;;;;;;5071737;28;20377;-64
2021/12/19 10:36:14;;;;;;;7.45;4.63;;;8.60;57.60;;;;;;5072612;28;20035;-66
2021/12/19 10:38:44;;;;;;;9.32;4.40;;;8.70;57.40;;;;;;5072854;28;20154;-62
2021/12/19 10:41:16;;;;;;;7.90;4.82;;;8.60;57.60;;;;;;5073551;28;20166;-61
2021/12/19 10:46:44;;;;;;;7.18;4.32;;;8.60;57.30;;;;;;5090768;28;20028;-61
2021/12/19 10:49:29;;;;;;;7.75;4.60;;;8.60;57.70;;;;;;5092536;28;20047;-65
2021/12/19 10:52:01;;;;;;;5.43;3.85;;;8.60;57.30;;;;;;5091355;28;20500;-62
2021/12/19 10:54:27;;;;;;;6.40;4.63;;;8.70;56.80;;;;;;5092845;28;20035;-65
2021/12/19 10:57:08;;;;;;;6.90;4.28;;;8.70;57.30;;;;;;5093133;28;20024;-63
2021/12/19 10:59:35;;;;;;;6.22;4.53;;;8.70;57.00;;;;;;5089167;28;20166;-63
2021/12/19 11:02:01;;;;;;;8.23;4.35;;;8.70;57.00;;;;;;5072981;28;20037;-68
2021/12/19 11:04:27;;;;;;;6.72;4.22;;;8.60;57.00;;;;;;5072072;28;20047;-62
2021/12/19 11:06:59;;;;;;;6.82;4.43;;;8.60;57.50;;;;;;5090260;28;20036;-63
2021/12/19 11:09:38;;;;;;;9.88;5.25;;;8.60;57.10;;;;;;5092479;28;20048;-64
2021/12/19 11:12:11;;;;;;;8.23;5.05;;;8.90;57.40;;;;;;5090570;28;20028;-64
2021/12/19 11:14:45;;;;;;;9.60;5.60;;;9.50;55.90;;;;;;5090751;28;20052;-66
2021/12/19 11:17:23;;;;;;;8.35;5.22;;;9.50;54.90;;;;;;5091733;28;20050;-63
2021/12/19 11:19:52;;;;;;;8.23;5.03;;;9.30;55.20;;;;;;5090920;28;20464;-62
2021/12/19 11:22:25;;;;;;;8.48;5.35;;;9.10;55.80;;;;;;5069722;28;20055;-64
2021/12/19 11:25:03;;;;;;;8.60;5.65;;;9.10;56.40;;;;;;5089643;28;20039;-61
2021/12/19 11:27:30;;;;;;;8.43;5.32;;;9.50;55.90;;;;;;5071210;28;20326;-64
2021/12/19 11:29:57;;;;;;;7.55;5.28;;;9.80;54.10;;;;;;5072237;28;20098;-62
2021/12/19 11:32:38;;;;;;;8.73;5.55;;;9.60;54.60;;;;;;5069993;28;20105;-61
2021/12/19 11:35:16;;;;;;;9.90;5.50;;;9.50;55.00;;;;;;5070128;28;20025;-63
2021/12/19 11:37:51;;;;;;;8.88;5.88;;;9.20;55.70;;;;;;5071635;28;20031;-62
2021/12/19 11:40:19;;;;;;;9.48;5.68;;;9.00;56.80;;;;;;5071985;28;20060;-64
2021/12/19 11:42:45;;;;;;;8.75;5.03;;;8.90;57.20;;;;;;5070956;28;20040;-63
2021/12/19 11:47:55;;;;;;;10.30;5.53;;;8.60;58.20;;;;;;5091486;28;20035;-64
2021/12/19 11:50:55;;;;;;;8.50;5.55;;;8.60;58.80;;;;;;5085759;28;20028;-62
2021/12/19 11:53:25;;;;;;;11.60;7.18;;;8.60;58.40;;;;;;5069515;28;20126;-64
2021/12/19 11:55:54;;;;;;;9.52;5.78;;;8.60;59.10;;;;;;5087534;28;20389;-66
2021/12/19 11:58:29;;;;;;;7.88;4.88;;;8.60;58.40;;;;;;5071873;28;20051;-63
2021/12/19 12:00:59;;;;;;;8.02;5.22;;;8.60;59.00;;;;;;5069537;28;20032;-63
2021/12/19 12:03:46;;;;;;;8.50;4.82;;;8.60;59.90;;;;;;5074285;28;20043;-63
2021/12/19 12:06:15;;;;;;;8.52;5.28;;;8.50;59.40;;;;;;5084493;28;20025;-65
2021/12/19 12:09:12;;;;;;;9.43;5.22;;;8.50;59.40;;;;;;5072243;28;20032;-64
2021/12/19 12:14:29;;;;;;;8.13;5.65;;;8.50;59.20;;;;;;5071881;28;20059;-66
2021/12/19 12:17:02;;;;;;;12.63;5.53;;;8.40;59.50;;;;;;5076223;28;20037;-68
2021/12/19 12:19:47;;;;;;;8.98;5.10;;;8.40;59.70;;;;;;5071319;28;20111;-63
2021/12/19 12:22:25;;;;;;;7.95;4.88;;;8.40;59.60;;;;;;5070195;28;20051;-65
2021/12/19 12:25:16;;;;;;;8.38;5.95;;;8.40;59.60;;;;;;5070543;28;20417;-61
2021/12/19 12:27:44;;;;;;;8.23;5.45;;;8.40;59.70;;;;;;5069854;28;20062;-62
2021/12/19 12:30:19;;;;;;;9.45;5.30;;;8.50;59.70;;;;;;5073495;28;20028;-65
2021/12/19 12:32:46;;;;;;;10.32;5.15;;;8.50;59.40;;;;;;5079517;28;20036;-64
2021/12/19 12:35:14;;;;;;;8.60;4.80;;;8.50;59.70;;;;;;5080839;28;20049;-62
2021/12/19 12:37:41;;;;;;;9.23;5.00;;;8.30;59.80;;;;;;5070856;28;20400;-61
2021/12/19 12:40:29;;;;;;;9.20;4.70;;;8.30;60.10;;;;;;5080655;28;20111;-65
2021/12/19 12:43:09;;;;;;;5.70;4.13;;;8.30;60.00;;;;;;5069467;28;20033;-60
2021/12/19 12:45:56;;;;;;;7.82;4.60;;;8.40;60.00;;;;;;5072657;28;20035;-62
2021/12/19 12:48:48;;;;;;;8.07;4.13;;;8.30;60.00;;;;;;5078071;28;20020;-60
2021/12/19 12:51:34;;;;;;;6.88;4.00;;;8.20;60.10;;;;;;5091937;28;20036;-63
2021/12/19 12:54:05;;;;;;;6.35;3.88;;;8.30;60.30;;;;;;5077298;28;20025;-66
2021/12/19 12:56:37;;;;;;;7.32;4.75;;;8.30;60.50;;;;;;5077340;28;20032;-65
2021/12/19 12:59:05;;;;;;;6.80;4.40;;;8.30;60.40;;;;;;5073909;28;20020;-64
2021/12/19 13:01:42;;;;;;;6.57;4.05;;;8.50;59.70;;;;;;5075247;28;20051;-61
2021/12/19 13:04:12;;;;;;;6.00;3.50;;;8.60;59.20;;;;;;5091038;28;20063;-65
2021/12/19 13:06:40;;;;;;;8.57;3.70;;;8.70;59.10;;;;;;5085112;28;20108;-66
2021/12/19 13:09:12;;;;;;;6.32;3.45;;;8.80;59.10;;;;;;5076383;28;20021;-65
2021/12/19 13:11:38;;;;;;;5.80;3.90;;;8.70;58.20;;;;;;5084344;28;20040;-65
2021/12/19 13:14:24;;;;;;;7.47;4.47;;;8.80;58.40;;;;;;5074997;28;20031;-63
2021/12/19 13:16:56;;;;;;;5.57;3.55;;;8.80;58.50;;;;;;5076126;28;20031;-66
2021/12/19 13:19:55;;;;;;;6.68;4.00;;;8.90;58.60;;;;;;5074721;28;20059;-65
2021/12/19 13:22:34;;;;;;;6.85;4.60;;;8.90;58.20;;;;;;5072768;28;20045;-62
2021/12/19 13:25:25;;;;;;;8.95;4.88;;;8.80;58.40;;;;;;5072517;28;20477;-69
2021/12/19 13:27:57;;;;;;;7.40;4.38;;;8.90;58.40;;;;;;5075324;28;20032;-62
2021/12/19 13:30:34;;;;;;;9.18;5.03;;;8.90;58.40;;;;;;5090412;28;20139;-65
2021/12/19 13:33:09;;;;;;;8.32;4.57;;;9.00;58.10;;;;;;5072901;28;20033;-67
2021/12/19 13:35:37;;;;;;;6.60;4.38;;;9.00;58.10;;;;;;5072639;28;20090;-61
2021/12/19 13:38:16;;;;;;;6.70;4.30;;;9.00;57.80;;;;;;5074087;28;20051;-62
2021/12/19 13:40:47;;;;;;;6.68;4.32;;;8.90;58.20;;;;;;5072337;28;20484;-63
2021/12/19 13:43:24;;;;;;;7.30;4.82;;;9.00;58.30;;;;;;5073817;28;20433;-70
2021/12/19 13:46:07;;;;;;;10.73;5.07;;;9.10;58.00;;;;;;5080438;28;20025;-65
2021/12/19 13:48:36;;;;;;;7.15;4.55;;;9.20;57.60;;;;;;5073964;28;20029;-67
2021/12/19 13:51:04;;;;;;;7.78;5.03;;;9.10;57.50;;;;;;5077964;28;20535;-64
2021/12/19 13:53:33;;;;;;;11.93;6.32;;;9.00;57.80;;;;;;5073633;28;20028;-64
2021/12/19 13:56:02;;;;;;;8.88;5.38;;;9.10;58.00;;;;;;5071678;28;20093;-69
2021/12/19 13:58:39;;;;;;;9.15;5.47;;;9.10;57.70;;;;;;5074625;28;20422;-64
2021/12/19 14:01:22;;;;;;;11.52;5.85;;;9.10;57.60;;;;;;5073284;28;20082;-64
2021/12/19 14:03:59;;;;;;;9.38;5.95;;;9.10;58.00;;;;;;5074732;28;20148;-67
2021/12/19 14:06:31;;;;;;;10.38;5.32;;;9.00;57.90;;;;;;5077664;28;20036;-63
2021/12/19 14:08:59;;;;;;;7.03;4.85;;;8.90;58.10;;;;;;5089004;28;20056;-65
2021/12/19 14:11:27;;;;;;;6.43;4.88;;;8.80;58.50;;;;;;5090288;28;20020;-63
2021/12/19 14:14:06;;;;;;;8.57;5.05;;;8.70;58.80;;;;;;5072958;28;20028;-69
2021/12/19 14:16:35;;;;;;;13.90;4.97;;;8.60;58.90;;;;;;5072041;28;20028;-67